Tanger, Morocco

09:23 WEST le 29 septembre 2016 (GMT +0100)
Ibn Batouta | | Change Station

Alt. 69 ft 35.73 °N, 5.91 °W | Updated 23 minutes ago

Scattered Clouds
Nuages épars
73 ° F
Paraît 73 ° F
N
22
Vent Variable Vent de Est
Gusts 38 mph

Aujourd'hui
Haut(e) -- | Bas -- ° F
--% Risque de précip.
Hier
Haut(e) -- | Bas -- ° F
Precip. -- pouce
Pression 30.06 pouce
Visibilité 6.2 Miles terrestres
Nuages Nuages épars 1600 ft
Point de rosée 59 ° F
Humidité 61%
Précipitations 0.00 pouce
Profondeur de la couche neigeuse Non disponible.
7:17 AM 7:09 PM
Lune descendante, 3% visible
METAR GMTT 290800Z 10019G33KT 9999 SCT016 23/15 Q1018 NOSIG
Pression 30.06 pouce
Visibilité 6.2 Miles terrestres
Nuages Nuages épars 1600 ft
Point de rosée 59 ° F
Humidité 61%
Précipitations 0.00 pouce
Profondeur de la couche neigeuse Non disponible.
7:17 AM 7:09 PM
Lune descendante, 3% visible
METAR GMTT 290800Z 10019G33KT 9999 SCT016 23/15 Q1018 NOSIG

10-Day Weather Forecast

No radar image for this location.
×

Almanac

Astronomie

Sep. 29, 2016 Lever Coucher
Temps réel
Crépuscule civil
Crépuscule nautique
Crépuscule astronomique
Lune
Durée de lumière visible
Longueur du jour
Tomorrow will be .
, % of the Moon is Illuminated

Extrêmes aujourd'hui

Country Highs Country Lows

Community

WunderPhotos

Upload Photos

1,942,446 Photos téléchargées !

WunderBlog® & News

Nearby

Qualité de l'air

  Qualité de l'air Indice de la qualité de l'air Polluant
Not available.

Épaisseur de neige

Station Depth Altitude

Activité sismique

Ville Distance Mag. Time & Date
Minimum magnitude displayed is 2.5.

Températures des eaux côtières

Lieu Température

Stations

Stations météo à proximité

Emplacement de la station Température Refroidissement éolien Point de rosée Humidité Vent Precip. Alt. Mise à jour Type